createdAt,value
2019-03-23T00:01:04.772Z,100862.67
2019-03-23T00:03:34.568Z,100857.00
2019-03-23T00:06:04.126Z,100857.02
2019-03-23T00:08:33.692Z,100862.27
2019-03-23T00:11:03.261Z,100861.40
2019-03-23T00:13:32.842Z,100868.45
2019-03-23T00:16:02.448Z,100871.09
2019-03-23T00:18:31.941Z,100872.85
2019-03-23T00:21:01.517Z,100875.50
2019-03-23T00:23:31.013Z,100876.83
2019-03-23T00:26:00.616Z,100880.33
2019-03-23T00:28:30.187Z,100880.33
2019-03-23T00:30:59.755Z,100884.28
2019-03-23T00:33:29.445Z,100886.93
2019-03-23T00:35:59.014Z,100887.37
2019-03-23T00:38:28.660Z,100893.08
2019-03-23T00:40:58.247Z,100893.08
2019-03-23T00:43:27.733Z,100892.21
2019-03-23T00:45:57.367Z,100898.77
2019-03-23T00:48:26.993Z,100893.52
2019-03-23T00:50:56.462Z,100900.09
2019-03-23T00:53:25.934Z,100894.38
2019-03-23T00:55:55.446Z,100902.28
2019-03-23T00:58:25.062Z,100898.33
2019-03-23T01:00:54.500Z,100895.70
2019-03-23T01:03:24.018Z,100900.09
2019-03-23T01:05:53.630Z,100904.89
2019-03-23T01:08:23.261Z,100905.34
2019-03-23T01:10:52.836Z,100905.34
2019-03-23T01:13:22.340Z,100900.95
2019-03-23T01:15:51.893Z,100901.82
2019-03-23T01:18:21.384Z,100906.64
2019-03-23T01:20:50.905Z,100900.46
2019-03-23T01:23:20.468Z,100901.36
2019-03-23T01:25:50.005Z,100901.35
2019-03-23T01:28:19.554Z,100899.13
2019-03-23T01:30:49.063Z,100909.20
2019-03-23T01:33:18.848Z,100905.69
2019-03-23T01:35:48.459Z,100907.46
2019-03-23T01:38:18.071Z,100901.32
2019-03-23T01:40:47.662Z,100898.23
2019-03-23T01:43:18.590Z,100890.79
2019-03-23T01:45:48.184Z,100899.98
2019-03-23T01:48:17.815Z,100900.83
2019-03-23T01:50:47.524Z,100900.83
2019-03-23T01:53:18.340Z,100905.20
2019-03-23T01:55:47.987Z,100906.50
2019-03-23T01:58:17.640Z,100910.86
2019-03-23T02:00:47.312Z,100906.47
2019-03-23T02:03:18.831Z,100911.70
2019-03-23T02:05:48.784Z,100911.25
2019-03-23T02:08:18.455Z,100907.73
2019-03-23T02:10:48.132Z,100913.44
2019-03-23T02:13:18.306Z,100906.88
2019-03-23T02:15:47.911Z,100909.03
2019-03-23T02:18:17.582Z,100915.14
2019-03-23T02:20:47.281Z,100912.06
2019-03-23T02:23:16.988Z,100910.73
2019-03-23T02:25:46.600Z,100914.64
2019-03-23T02:28:16.248Z,100912.91
2019-03-23T02:30:45.895Z,100922.48
2019-03-23T02:33:15.514Z,100921.59
2019-03-23T02:35:45.152Z,100934.28
2019-03-23T02:38:14.871Z,100932.06
2019-03-23T02:40:44.577Z,100933.80
2019-03-23T02:43:14.247Z,100934.23
2019-03-23T02:45:43.918Z,100940.34
2019-03-23T02:48:13.627Z,100936.80
2019-03-23T02:50:43.257Z,100943.38
2019-03-23T02:53:13.021Z,100943.35
2019-03-23T02:55:42.658Z,100944.66
2019-03-23T02:58:12.357Z,100949.45
2019-03-23T03:00:42.083Z,100951.62
2019-03-23T03:03:11.819Z,100949.84
2019-03-23T03:05:41.532Z,100952.44
2019-03-23T03:08:11.200Z,100959.88
2019-03-23T03:10:41.134Z,100962.48
2019-03-23T03:13:10.757Z,100966.39
2019-03-23T03:15:40.430Z,100966.40
2019-03-23T03:18:10.083Z,100967.23
2019-03-23T03:20:39.856Z,100971.99
2019-03-23T03:23:09.460Z,100975.94
2019-03-23T03:25:39.117Z,100977.22
2019-03-23T03:28:08.771Z,100980.71
2019-03-23T03:30:38.444Z,100984.58
2019-03-23T03:33:08.047Z,100991.98
2019-03-23T03:35:37.684Z,100988.88
2019-03-23T03:38:07.294Z,100990.61
2019-03-23T03:40:36.889Z,100997.19
2019-03-23T03:43:06.475Z,100999.41
2019-03-23T03:45:36.156Z,100997.27
2019-03-23T03:48:05.795Z,101005.22
2019-03-23T03:50:35.467Z,101006.13
2019-03-23T03:53:05.079Z,101024.48
2019-03-23T03:55:34.732Z,101010.98
2019-03-23T03:58:04.351Z,101011.37
2019-03-23T04:00:34.005Z,101016.22
2019-03-23T04:03:03.603Z,101021.02
2019-03-23T04:05:33.299Z,101012.72
2019-03-23T04:08:11.195Z,101007.94
2019-03-23T04:10:34.276Z,101009.25
2019-03-23T04:13:03.918Z,101010.58
2019-03-23T04:15:33.621Z,101003.14
2019-03-23T04:18:03.377Z,101004.89
2019-03-23T04:20:33.036Z,101008.84
2019-03-23T04:23:02.658Z,101011.05
2019-03-23T04:25:32.323Z,101018.94
2019-03-23T04:28:01.965Z,101024.18
2019-03-23T04:30:31.625Z,101027.19
2019-03-23T04:33:01.263Z,101025.03
2019-03-23T04:35:30.885Z,101033.31
2019-03-23T04:38:00.538Z,101030.28
2019-03-23T04:40:30.245Z,101035.92
2019-03-23T04:42:59.909Z,101035.52
2019-03-23T04:45:29.595Z,101034.16
2019-03-23T04:47:59.204Z,101042.03
2019-03-23T04:50:28.855Z,101041.59
2019-03-23T04:52:58.498Z,101039.42
2019-03-23T04:55:28.397Z,101036.33
2019-03-23T04:57:58.037Z,101043.69
2019-03-23T05:00:27.749Z,101056.78
2019-03-23T05:02:57.383Z,101050.64
2019-03-23T05:05:27.132Z,101054.16
2019-03-23T05:07:56.775Z,101062.02
2019-03-23T05:10:26.562Z,101071.65
2019-03-23T05:12:56.237Z,101077.29
2019-03-23T05:15:26.014Z,101078.58
2019-03-23T05:17:55.664Z,101077.27
2019-03-23T05:20:29.868Z,101074.23
2019-03-23T05:22:59.703Z,101076.45
2019-03-23T05:25:29.470Z,101082.93
2019-03-23T05:27:59.234Z,101078.97
2019-03-23T05:30:29.142Z,101077.66
2019-03-23T05:32:58.839Z,101083.83
2019-03-23T05:35:28.567Z,101081.65
2019-03-23T05:37:58.187Z,101090.38
2019-03-23T05:40:27.939Z,101091.27
2019-03-23T05:42:57.623Z,101092.13
2019-03-23T05:45:27.291Z,101087.36
2019-03-23T05:47:56.913Z,101086.45
2019-03-23T05:50:26.660Z,101083.81
2019-03-23T05:52:56.361Z,101089.52
2019-03-23T05:55:26.038Z,101087.31
2019-03-23T05:57:55.688Z,101096.95
2019-03-23T06:00:25.356Z,101097.38
2019-03-23T06:02:55.037Z,101106.16
2019-03-23T06:05:24.855Z,101107.89
2019-03-23T06:07:54.516Z,101104.42
2019-03-23T06:10:24.114Z,101104.87
2019-03-23T06:12:53.783Z,101098.31
2019-03-23T06:15:23.397Z,101110.11
2019-03-23T06:17:53.151Z,101117.51
2019-03-23T06:20:22.774Z,101118.82
2019-03-23T06:22:52.451Z,101120.19
2019-03-23T06:25:22.150Z,101124.16
2019-03-23T06:27:51.774Z,101118.08
2019-03-23T06:30:21.391Z,101127.31
2019-03-23T06:32:51.052Z,101122.55
2019-03-23T06:35:20.646Z,101125.23
2019-03-23T06:37:50.308Z,101130.48
2019-03-23T06:40:19.908Z,101133.55
2019-03-23T06:42:59.355Z,101127.02
2019-03-23T06:45:20.989Z,101126.13
2019-03-23T06:47:50.668Z,101134.05
2019-03-23T06:50:20.341Z,101139.25
2019-03-23T06:52:49.979Z,101136.58
2019-03-23T06:55:19.544Z,101133.09
2019-03-23T06:57:49.317Z,101137.47
2019-03-23T07:00:18.984Z,101145.39
2019-03-23T07:02:48.631Z,101142.80
2019-03-23T07:05:18.198Z,101135.42
2019-03-23T07:07:47.893Z,101131.03
2019-03-23T07:10:17.477Z,101131.53
2019-03-23T07:12:47.196Z,101135.02
2019-03-23T07:15:20.397Z,101137.68
2019-03-23T07:17:48.294Z,101136.42
2019-03-23T07:20:17.932Z,101137.77
2019-03-23T07:22:47.577Z,101137.36
2019-03-23T07:25:17.207Z,101143.52
2019-03-23T07:27:46.932Z,101143.95
2019-03-23T07:30:16.685Z,101146.17
2019-03-23T07:32:46.328Z,101152.31
2019-03-23T07:35:16.058Z,101153.62
2019-03-23T07:37:45.708Z,101158.00
2019-03-23T07:40:15.322Z,101158.47
2019-03-23T07:42:45.270Z,101162.02
2019-03-23T07:45:14.894Z,101167.72
2019-03-23T07:47:44.525Z,101165.98
2019-03-23T07:50:14.363Z,101168.65
2019-03-23T07:52:44.005Z,101165.62
2019-03-23T07:55:16.656Z,101161.25
2019-03-23T07:57:46.441Z,101172.20
2019-03-23T08:00:17.867Z,101159.08
2019-03-23T08:02:47.520Z,101168.73
2019-03-23T08:05:17.204Z,101173.98
2019-03-23T08:07:46.840Z,101177.51
2019-03-23T08:10:30.262Z,101178.44
2019-03-23T08:12:59.903Z,101178.90
2019-03-23T08:15:29.660Z,101179.36
2019-03-23T08:17:59.311Z,101182.00
2019-03-23T08:20:28.920Z,101194.28
2019-03-23T08:22:58.513Z,101177.21
2019-03-23T08:25:28.276Z,101179.87
2019-03-23T08:27:58.187Z,101183.81
2019-03-23T08:30:27.820Z,101179.45
2019-03-23T08:32:57.451Z,101176.41
2019-03-23T08:35:27.235Z,101179.52
2019-03-23T08:37:56.907Z,101178.19
2019-03-23T08:40:26.559Z,101170.30
2019-03-23T08:42:56.532Z,101179.53
2019-03-23T08:45:26.205Z,101179.11
2019-03-23T08:47:55.928Z,101174.72
2019-03-23T08:50:25.622Z,101175.59
2019-03-23T08:52:55.365Z,101176.55
2019-03-23T08:55:25.117Z,101174.80
2019-03-23T08:57:54.817Z,101174.42
2019-03-23T09:00:24.484Z,101181.45
2019-03-23T09:02:54.188Z,101185.86
2019-03-23T09:05:24.001Z,101185.87
2019-03-23T09:07:53.710Z,101188.09
2019-03-23T09:10:23.421Z,101190.76
2019-03-23T09:12:53.304Z,101185.93
2019-03-23T09:15:23.074Z,101188.58
2019-03-23T09:17:52.718Z,101152.16
2019-03-23T09:20:22.419Z,101185.99
2019-03-23T09:22:52.821Z,101185.56
2019-03-23T09:25:22.922Z,101192.13
2019-03-23T09:27:52.685Z,101191.27
2019-03-23T09:30:22.401Z,101190.86
2019-03-23T09:32:52.050Z,101196.58
2019-03-23T09:35:21.746Z,101199.66
2019-03-23T09:37:51.416Z,101194.40
2019-03-23T09:40:21.110Z,101195.73
2019-03-23T09:42:50.900Z,101193.95
2019-03-23T09:45:20.658Z,101196.15
2019-03-23T09:47:50.282Z,101201.42
2019-03-23T09:50:20.041Z,101201.84
2019-03-23T09:52:49.884Z,101208.43
2019-03-23T09:55:19.539Z,101208.85
2019-03-23T09:57:49.200Z,101211.48
2019-03-23T10:00:18.883Z,101218.97
2019-03-23T10:02:48.489Z,101211.05
2019-03-23T10:05:19.327Z,101216.77
2019-03-23T10:07:49.096Z,101207.53
2019-03-23T10:10:22.079Z,101212.77
2019-03-23T10:12:53.091Z,101209.72
2019-03-23T10:15:22.915Z,101214.09
2019-03-23T10:17:52.682Z,101216.30
2019-03-23T10:20:22.375Z,101220.70
2019-03-23T10:22:52.077Z,101215.42
2019-03-23T10:25:21.917Z,101221.56
2019-03-23T10:27:51.670Z,101218.93
2019-03-23T10:30:21.379Z,101216.30
2019-03-23T10:32:51.147Z,101220.25
2019-03-23T10:35:20.952Z,101218.51
2019-03-23T10:37:51.074Z,101218.05
2019-03-23T10:40:20.770Z,101221.14
2019-03-23T10:42:50.622Z,101221.56
2019-03-23T10:45:20.362Z,101220.67
2019-03-23T10:47:50.350Z,101226.84
2019-03-23T10:50:20.100Z,101220.70
2019-03-23T10:52:49.912Z,101223.33
2019-03-23T10:55:19.662Z,101223.77
2019-03-23T10:57:49.475Z,101225.97
2019-03-23T11:00:19.298Z,101219.84
2019-03-23T11:02:49.087Z,101226.41
2019-03-23T11:05:18.826Z,101222.89
2019-03-23T11:07:50.747Z,101218.93
2019-03-23T11:10:20.457Z,101223.79
2019-03-23T11:12:50.110Z,101220.69
2019-03-23T11:15:20.172Z,101225.08
2019-03-23T11:17:49.906Z,101219.38
2019-03-23T11:20:20.281Z,101223.31
2019-03-23T11:22:50.124Z,101225.53
2019-03-23T11:25:19.926Z,101223.30
2019-03-23T11:27:49.736Z,101227.25
2019-03-23T11:30:19.487Z,101229.89
2019-03-23T11:32:49.257Z,101228.55
2019-03-23T11:35:19.064Z,101227.23
2019-03-23T11:37:49.222Z,101225.88
2019-03-23T11:40:19.345Z,101228.41
2019-03-23T11:42:50.404Z,101226.95
2019-03-23T11:45:20.243Z,101226.73
2019-03-23T11:47:50.054Z,101233.39
2019-03-23T11:50:19.723Z,101229.02
2019-03-23T11:52:49.476Z,101226.08
2019-03-23T11:55:19.326Z,101226.15
2019-03-23T11:57:49.162Z,101224.80
2019-03-23T12:00:18.936Z,101225.58
2019-03-23T12:02:48.602Z,101223.45
2019-03-23T12:05:18.458Z,101225.27
2019-03-23T12:07:48.279Z,101223.64
2019-03-23T12:10:17.921Z,101234.75
2019-03-23T12:12:47.615Z,101234.38
2019-03-23T12:15:17.376Z,101228.19
2019-03-23T12:17:47.160Z,101226.50
2019-03-23T12:20:16.900Z,101227.65
2019-03-23T12:22:46.547Z,101219.19
2019-03-23T12:25:16.265Z,101216.80
2019-03-23T12:27:45.901Z,101223.27
2019-03-23T12:30:16.158Z,101219.20
2019-03-23T12:32:45.749Z,101216.88
2019-03-23T12:35:15.497Z,101226.95
2019-03-23T12:37:45.171Z,101224.70
2019-03-23T12:40:15.733Z,101223.22
2019-03-23T12:42:45.525Z,101228.58
2019-03-23T12:45:15.263Z,101132.16
2019-03-23T12:47:45.113Z,101217.70
2019-03-23T12:50:14.943Z,101232.36
2019-03-23T12:52:44.856Z,101216.56
2019-03-23T12:55:14.525Z,101222.55
2019-03-23T12:57:44.179Z,101220.18
2019-03-23T13:00:14.151Z,101222.47
2019-03-23T13:02:43.823Z,101224.58
2019-03-23T13:05:13.585Z,101217.27
2019-03-23T13:07:43.241Z,101218.31
2019-03-23T13:10:13.139Z,101225.44
2019-03-23T13:12:42.952Z,101225.09
2019-03-23T13:15:12.665Z,101222.96
2019-03-23T13:17:42.328Z,101224.84
2019-03-23T13:20:12.677Z,101218.28
2019-03-23T13:22:42.921Z,101214.69
2019-03-23T13:25:12.916Z,101219.06
2019-03-23T13:27:42.999Z,101213.19
2019-03-23T13:30:13.326Z,101212.11
2019-03-23T13:32:42.964Z,101208.34
2019-03-23T13:35:12.650Z,101209.00
2019-03-23T13:37:42.258Z,101206.95
2019-03-23T13:40:12.026Z,101205.67
2019-03-23T13:42:41.735Z,101202.98
2019-03-23T13:45:11.384Z,101206.53
2019-03-23T13:47:42.775Z,101196.77
2019-03-23T13:50:12.729Z,101201.14
2019-03-23T13:52:49.198Z,101184.91
2019-03-23T13:55:32.560Z,101196.59
2019-03-23T13:58:12.326Z,101190.78
2019-03-23T14:00:42.296Z,101195.98
2019-03-23T14:03:11.967Z,101191.45
2019-03-23T14:05:41.644Z,101193.66
2019-03-23T14:08:11.270Z,101189.27
2019-03-23T14:10:40.930Z,101190.17
2019-03-23T14:13:10.685Z,101183.72
2019-03-23T14:15:40.490Z,101184.66
2019-03-23T14:18:10.185Z,101182.49
2019-03-23T14:20:39.934Z,101190.05
2019-03-23T14:23:09.889Z,101190.19
2019-03-23T14:25:39.695Z,101186.55
2019-03-23T14:28:09.544Z,101181.95
2019-03-23T14:30:39.219Z,101190.09
2019-03-23T14:33:08.984Z,101182.70
2019-03-23T14:35:38.671Z,101187.63
2019-03-23T14:38:08.307Z,101189.49
2019-03-23T14:40:37.905Z,101185.66
2019-03-23T14:43:07.578Z,101185.73
2019-03-23T14:45:37.275Z,101185.44
2019-03-23T14:48:06.894Z,101186.84
2019-03-23T14:50:36.541Z,101197.98
2019-03-23T14:53:07.681Z,101195.87
2019-03-23T14:55:37.582Z,101193.30
2019-03-23T14:58:07.294Z,101204.41
2019-03-23T15:00:36.997Z,101200.57
2019-03-23T15:03:06.630Z,101197.55
2019-03-23T15:05:37.308Z,101197.61
2019-03-23T15:08:07.407Z,101196.81
2019-03-23T15:10:37.039Z,101196.83
2019-03-23T15:13:06.749Z,101197.31
2019-03-23T15:15:36.424Z,101199.59
2019-03-23T15:18:06.193Z,101221.70
2019-03-23T15:20:35.924Z,101201.02
2019-03-23T15:23:05.563Z,101198.42
2019-03-23T15:25:35.255Z,101199.31
2019-03-23T15:28:04.954Z,101200.25
2019-03-23T15:30:34.552Z,101195.06
2019-03-23T15:33:04.264Z,101196.00
2019-03-23T15:35:33.862Z,101192.97
2019-03-23T15:38:03.580Z,101196.94
2019-03-23T15:40:33.344Z,101195.19
2019-03-23T15:43:03.165Z,101194.29
2019-03-23T15:45:32.862Z,101193.39
2019-03-23T15:48:02.554Z,101199.15
2019-03-23T15:50:32.295Z,101196.08
2019-03-23T15:53:02.000Z,101193.44
2019-03-23T15:55:31.622Z,101186.80
2019-03-23T15:58:02.384Z,101189.00
2019-03-23T16:00:32.083Z,101187.64
2019-03-23T16:03:02.071Z,101193.44
2019-03-23T16:05:31.686Z,101191.66
2019-03-23T16:08:01.357Z,101185.47
2019-03-23T16:10:31.016Z,101189.01
2019-03-23T16:13:00.799Z,101187.68
2019-03-23T16:15:30.454Z,101192.50
2019-03-23T16:18:01.668Z,101189.86
2019-03-23T16:20:31.407Z,101189.00
2019-03-23T16:23:01.005Z,101190.80
2019-03-23T16:25:30.646Z,101191.27
2019-03-23T16:28:00.267Z,101194.89
2019-03-23T16:30:33.425Z,101187.42
2019-03-23T16:33:03.061Z,101194.53
2019-03-23T16:35:32.784Z,101191.07
2019-03-23T16:38:02.417Z,101196.78
2019-03-23T16:40:32.139Z,101184.94
2019-03-23T16:43:01.922Z,101192.47
2019-03-23T16:45:31.586Z,101195.14
2019-03-23T16:48:01.437Z,101189.86
2019-03-23T16:50:31.174Z,101189.46
2019-03-23T16:53:00.797Z,101197.45
2019-03-23T16:55:30.434Z,101191.77
2019-03-23T16:58:00.141Z,101187.34
2019-03-23T17:00:39.111Z,101193.11
2019-03-23T17:03:08.783Z,101193.57
2019-03-23T17:05:38.364Z,101192.73
2019-03-23T17:08:08.104Z,101189.20
2019-03-23T17:10:37.744Z,101185.27
2019-03-23T17:13:07.537Z,101186.16
2019-03-23T17:15:37.112Z,101182.66
2019-03-23T17:18:06.818Z,101184.92
2019-03-23T17:20:36.467Z,101182.27
2019-03-23T17:23:06.119Z,101182.73
2019-03-23T17:25:37.616Z,101189.33
2019-03-23T17:28:07.209Z,101188.89
2019-03-23T17:30:36.846Z,101195.48
2019-03-23T17:33:08.871Z,101194.59
2019-03-23T17:35:37.993Z,101192.85
2019-03-23T17:38:07.666Z,101195.94
2019-03-23T17:40:37.435Z,101194.67
2019-03-23T17:43:07.406Z,101194.69
2019-03-23T17:45:37.188Z,101199.95
2019-03-23T17:48:06.853Z,101216.27
2019-03-23T17:50:36.518Z,101206.14
2019-03-23T17:53:06.268Z,101203.49
2019-03-23T17:55:35.893Z,101203.06
2019-03-23T17:58:05.770Z,101208.36
2019-03-23T18:00:35.382Z,101206.58
2019-03-23T18:03:05.038Z,101200.44
2019-03-23T18:05:37.166Z,101206.56
2019-03-23T18:08:06.807Z,101213.63
2019-03-23T18:10:36.758Z,101210.55
2019-03-23T18:13:16.124Z,101215.39
2019-03-23T18:15:40.893Z,101213.63
2019-03-23T18:18:10.521Z,101211.45
2019-03-23T18:20:40.137Z,101207.06
2019-03-23T18:23:09.798Z,101211.91
2019-03-23T18:25:39.443Z,101213.65
2019-03-23T18:28:09.115Z,101214.97
2019-03-23T18:30:40.569Z,101212.31
2019-03-23T18:33:10.210Z,101219.35
2019-03-23T18:35:39.846Z,101223.31
2019-03-23T18:38:09.739Z,101223.30
2019-03-23T18:40:39.362Z,101223.31
2019-03-23T18:43:10.565Z,101227.27
2019-03-23T18:45:43.002Z,101227.70
2019-03-23T18:48:12.627Z,101244.86
2019-03-23T18:50:42.849Z,101223.76
2019-03-23T18:53:12.682Z,101225.95
2019-03-23T18:55:42.330Z,101226.37
2019-03-23T18:58:11.935Z,101225.95
2019-03-23T19:00:42.809Z,101231.21
2019-03-23T19:03:12.574Z,101228.16
2019-03-23T19:05:42.295Z,101225.52
2019-03-23T19:08:12.165Z,101224.64
2019-03-23T19:10:41.859Z,101229.49
2019-03-23T19:13:11.488Z,101230.80
2019-03-23T19:15:41.130Z,101239.59
2019-03-23T19:18:10.788Z,101237.83
2019-03-23T19:20:40.377Z,101236.97
2019-03-23T19:23:10.456Z,101233.45
2019-03-23T19:25:40.049Z,101234.77
2019-03-23T19:28:09.980Z,101235.20
2019-03-23T19:30:39.591Z,101233.89
2019-03-23T19:33:09.318Z,101232.13
2019-03-23T19:35:38.949Z,101236.53
2019-03-23T19:38:08.634Z,101237.84
2019-03-23T19:40:38.214Z,101236.52
2019-03-23T19:43:07.971Z,101235.21
2019-03-23T19:45:37.705Z,101235.23
2019-03-23T19:48:07.462Z,101235.22
2019-03-23T19:50:37.307Z,101243.58
2019-03-23T19:53:06.959Z,101240.50
2019-03-23T19:55:36.734Z,101237.41
2019-03-23T19:58:06.467Z,101242.25
2019-03-23T20:00:36.233Z,101243.15
2019-03-23T20:03:06.076Z,101242.24
2019-03-23T20:05:35.844Z,101240.94
2019-03-23T20:08:05.484Z,101249.27
2019-03-23T20:10:35.241Z,101248.84
2019-03-23T20:13:05.072Z,101246.63
2019-03-23T20:15:34.724Z,101247.95
2019-03-23T20:18:04.454Z,101253.69
2019-03-23T20:20:34.140Z,101244.45
2019-03-23T20:23:03.797Z,101246.64
2019-03-23T20:25:33.509Z,101249.27
2019-03-23T20:28:03.199Z,101254.10
2019-03-23T20:30:32.832Z,101243.11
2019-03-23T20:33:03.880Z,101244.88
2019-03-23T20:35:33.576Z,101247.06
2019-03-23T20:38:03.247Z,101244.88
2019-03-23T20:40:32.929Z,101240.48
2019-03-23T20:43:05.524Z,101241.38
2019-03-23T20:45:35.147Z,101235.20
2019-03-23T20:48:04.869Z,101234.35
2019-03-23T20:50:34.518Z,101239.61
2019-03-23T20:53:04.271Z,101237.41
2019-03-23T20:55:33.906Z,101242.66
2019-03-23T20:58:04.601Z,101238.70
2019-03-23T21:00:34.266Z,101235.59
2019-03-23T21:03:04.627Z,101234.26
2019-03-23T21:05:34.624Z,101236.44
2019-03-23T21:08:04.560Z,101235.12
2019-03-23T21:10:34.523Z,101230.76
2019-03-23T21:13:04.715Z,101229.42
2019-03-23T21:15:34.297Z,101229.00
2019-03-23T21:18:03.949Z,101228.11
2019-03-23T21:20:33.661Z,101220.66
2019-03-23T21:23:04.432Z,101218.03
2019-03-23T21:25:34.054Z,101215.83
2019-03-23T21:28:03.733Z,101210.56
2019-03-23T21:30:33.429Z,101204.42
2019-03-23T21:33:03.154Z,101203.54
2019-03-23T21:35:32.904Z,101202.67
2019-03-23T21:38:02.663Z,101205.75
2019-03-23T21:40:34.863Z,101207.05
2019-03-23T21:43:06.182Z,101200.92
2019-03-23T21:45:35.875Z,101196.97
2019-03-23T21:48:05.544Z,101190.82
2019-03-23T21:50:35.153Z,101189.93
2019-03-23T21:53:06.705Z,101191.70
2019-03-23T21:55:36.550Z,101189.05
2019-03-23T21:58:06.242Z,101190.81
2019-03-23T22:00:36.065Z,101197.38
2019-03-23T22:03:05.850Z,101194.30
2019-03-23T22:05:36.596Z,101187.27
2019-03-23T22:08:06.811Z,101183.31
2019-03-23T22:10:36.433Z,101185.96
2019-03-23T22:13:06.860Z,101184.19
2019-03-23T22:15:36.588Z,101189.02
2019-03-23T22:18:06.203Z,101190.77
2019-03-23T22:20:35.802Z,101184.61
2019-03-23T22:23:06.374Z,101184.17
2019-03-23T22:25:35.964Z,101181.98
2019-03-23T22:28:05.630Z,101185.91
2019-03-23T22:30:35.261Z,101181.97
2019-03-23T22:33:05.071Z,101179.35
2019-03-23T22:35:34.705Z,101180.69
2019-03-23T22:38:04.402Z,101179.83
2019-03-23T22:40:34.161Z,101168.84
2019-03-23T22:43:03.820Z,101172.78
2019-03-23T22:45:35.734Z,101174.94
2019-03-23T22:48:04.909Z,101174.52
2019-03-23T22:50:34.556Z,101172.73
2019-03-23T22:53:05.142Z,101167.02
2019-03-23T22:55:35.051Z,101163.05
2019-03-23T22:58:04.748Z,101161.29
2019-03-23T23:00:47.858Z,101162.61
2019-03-23T23:03:17.500Z,101156.03
2019-03-23T23:05:47.092Z,101154.70
2019-03-23T23:08:16.667Z,101147.25
2019-03-23T23:10:46.245Z,101148.13
2019-03-23T23:13:15.855Z,101152.49
2019-03-23T23:15:45.466Z,101150.31
2019-03-23T23:18:15.148Z,101150.73
2019-03-23T23:20:44.821Z,101148.09
2019-03-23T23:23:14.425Z,101150.31
2019-03-23T23:25:45.387Z,101151.16
2019-03-23T23:28:15.494Z,101152.93
2019-03-23T23:30:45.921Z,101142.85
2019-03-23T23:33:15.583Z,101145.48
2019-03-23T23:35:45.168Z,101148.97
2019-03-23T23:38:14.835Z,101144.15
2019-03-23T23:40:44.433Z,101147.67
2019-03-23T23:43:14.157Z,101145.02
2019-03-23T23:45:43.819Z,101140.64
2019-03-23T23:48:13.486Z,101134.53
2019-03-23T23:50:43.206Z,101140.64
2019-03-23T23:53:12.881Z,101140.62
2019-03-23T23:55:43.339Z,101137.10
2019-03-23T23:58:12.979Z,101143.69
